This demonstration page uses our WeatherBlox Daily Observations layout. Learn more.

36.17497, -115.13722

Hourly Observations for June 20, 2015

Temp ( °F °C ) Dew Point ( °F °C ) Humidity (%) Winds ( mph kmh ) Pressure ( in mb ) Visibility ( mi km ) Precip ( " mm )
12:53 am 00:53 Clear 89 31.7 10 -12.2 5 5 NW 9 15 29.71 1006 10 16.0934 0 0
1:53 am 01:53 Clear 85 29.4 14 -10 7 7 WNW 5 7 29.71 1006 10 16.0934 0 0
2:53 am 02:53 Clear 81 27.2 20 -6.7 10 10 NNW 8 13 29.72 1006 10 16.0934 0 0
3:53 am 03:53 Clear 80 26.7 24 -4.4 13 13 WNW 6 9 29.74 1007 10 16.0934 0 0
4:53 am 04:53 Clear 83 28.3 13 -10.6 7 7 VRB 3 6 29.74 1007 10 16.0934 0 0
5:53 am 05:53 Sunny 80 26.7 15 -9.4 8 8 N 5 7 29.75 1008 10 16.0934 0 0
6:53 am 06:53 Sunny 84 28.9 21 -6.1 10 10 Calm 29.78 1009 10 16.0934 0 0
7:53 am 07:53 Sunny 90 32.2 16 -8.9 6 6 Calm 29.79 1009 10 16.0934 0 0
8:53 am 08:53 Sunny 93 33.9 10 -12.2 4 4 ENE 6 9 29.8 1009 10 16.0934 0 0
9:53 am 09:53 Sunny 95 35 7 -13.9 4 4 ESE 8 13 29.8 1009 10 16.0934 0 0
10:53 am 10:53 Sunny 98 36.7 7 -13.9 3 3 VRB 7 11 29.8 1009 10 16.0934 0 0
11:53 am 11:53 Sunny 101 38.3 -1 -18.3 2 2 SSW 5 7 29.78 1009 10 16.0934 0 0
12:53 pm 12:53 Sunny 104 40 -7 -21.7 1 1 WSW 6 9 29.77 1008 10 16.0934 0 0
1:53 pm 13:53 Sunny 107 41.7 -10 -23.3 1 1 SSE 12 19 29.74 1007 10 16.0934 0 0
2:53 pm 14:53 Sunny 110 43.3 -7 -21.7 1 1 SE 16 26 29.71 1006 10 16.0934 0 0
3:53 pm 15:53 Sunny 110 43.3 -17 -27.2 1 1 S 14 22 29.69 1005 10 16.0934 0 0
4:53 pm 16:53 Sunny 111 43.9 -17 -27.2 1 1 SSE 12 19 29.66 1004 10 16.0934 0 0
5:53 pm 17:53 Sunny 111 43.9 -31 -35 0 0 WSW 13 20 29.65 1004 10 16.0934 0 0
6:53 pm 18:53 Sunny 109 42.8 -26 -32.2 0 0 SW 16 26 29.65 1004 10 16.0934 0 0
7:53 pm 19:53 Sunny 106 41.1 -8 -22.2 1 1 SW 9 15 29.66 1004 10 16.0934 0 0
10:53 pm 22:53 Clear 97 36.1 3 -16.1 3 3 SSW 10 17 29.69 1006 10 16.0934 0 0
11:53 pm 23:53 Clear 94 34.4 8 -13.3 4 4 SSW 10 17 29.7 1006 10 16.0934 0 0

Powered by AerisWeather